createdAt,value
2018-11-22T00:01:39.153Z,34.20
2018-11-22T00:04:06.443Z,37.50
2018-11-22T00:06:33.755Z,38.73
2018-11-22T00:09:01.059Z,36.15
2018-11-22T00:11:28.487Z,36.50
2018-11-22T00:13:55.805Z,32.08
2018-11-22T00:16:23.071Z,36.60
2018-11-22T00:18:50.372Z,37.73
2018-11-22T00:21:17.684Z,34.73
2018-11-22T00:23:45.389Z,36.83
2018-11-22T00:26:12.683Z,37.93
2018-11-22T00:28:40.004Z,39.33
2018-11-22T00:31:07.436Z,37.73
2018-11-22T00:33:34.753Z,36.80
2018-11-22T00:36:02.092Z,36.60
2018-11-22T00:38:29.382Z,37.42
2018-11-22T00:40:56.804Z,37.15
2018-11-22T00:43:24.127Z,36.38
2018-11-22T00:45:51.703Z,37.67
2018-11-22T00:48:19.135Z,39.50
2018-11-22T00:50:46.429Z,38.53
2018-11-22T00:53:13.739Z,37.05
2018-11-22T00:55:41.115Z,36.45
2018-11-22T00:58:08.393Z,38.70
2018-11-22T01:00:55.118Z,38.95
2018-11-22T01:03:24.478Z,36.55
2018-11-22T01:05:51.781Z,37.25
2018-11-22T01:08:19.125Z,37.73
2018-11-22T01:10:46.485Z,37.75
2018-11-22T01:13:13.830Z,37.20
2018-11-22T01:15:41.141Z,36.75
2018-11-22T01:18:08.561Z,37.30
2018-11-22T01:20:35.872Z,38.92
2018-11-22T01:23:03.248Z,35.17
2018-11-22T01:25:30.588Z,39.48
2018-11-22T01:27:57.903Z,34.85
2018-11-22T01:30:26.172Z,32.80
2018-11-22T01:32:54.412Z,34.63
2018-11-22T01:35:22.176Z,39.40
2018-11-22T01:37:49.544Z,36.10
2018-11-22T01:40:18.295Z,36.55
2018-11-22T01:42:45.628Z,36.42
2018-11-22T01:45:14.568Z,39.35
2018-11-22T01:47:41.945Z,39.08
2018-11-22T01:50:10.529Z,38.25
2018-11-22T01:52:38.051Z,37.20
2018-11-22T01:55:07.937Z,38.78
2018-11-22T01:57:35.300Z,37.00
2018-11-22T02:00:02.721Z,39.90
2018-11-22T02:02:30.132Z,38.53
2018-11-22T02:04:57.493Z,38.25
2018-11-22T02:07:24.851Z,38.85
2018-11-22T02:09:52.250Z,41.77
2018-11-22T02:12:19.561Z,38.80
2018-11-22T02:14:46.934Z,40.75
2018-11-22T02:17:33.624Z,36.53
2018-11-22T02:20:00.946Z,37.23
2018-11-22T02:22:28.265Z,40.78
2018-11-22T02:24:55.540Z,37.95
2018-11-22T02:27:22.897Z,39.18
2018-11-22T02:29:50.253Z,39.75
2018-11-22T02:32:17.651Z,40.95
2018-11-22T02:34:44.996Z,41.18
2018-11-22T02:37:12.334Z,37.25
2018-11-22T02:39:39.585Z,37.98
2018-11-22T02:42:06.910Z,38.45
2018-11-22T02:44:34.207Z,36.83
2018-11-22T02:47:01.553Z,38.88
2018-11-22T02:49:28.849Z,38.58
2018-11-22T02:51:56.150Z,39.78
2018-11-22T02:54:23.479Z,40.40
2018-11-22T02:56:50.767Z,40.03
2018-11-22T02:59:18.183Z,36.50
2018-11-22T03:01:45.486Z,40.85
2018-11-22T03:04:12.814Z,40.92
2018-11-22T03:06:40.231Z,39.67
2018-11-22T03:09:08.462Z,39.98
2018-11-22T03:11:35.774Z,39.25
2018-11-22T03:14:03.097Z,40.83
2018-11-22T03:16:30.403Z,35.50
2018-11-22T03:18:57.811Z,36.28
2018-11-22T03:21:27.510Z,38.53
2018-11-22T03:23:54.994Z,36.55
2018-11-22T03:26:22.411Z,37.88
2018-11-22T03:28:49.699Z,36.75
2018-11-22T03:31:17.134Z,39.83
2018-11-22T03:33:44.505Z,38.85
2018-11-22T03:36:11.824Z,38.88
2018-11-22T03:38:39.183Z,39.40
2018-11-22T03:41:06.503Z,38.67
2018-11-22T03:43:33.840Z,39.92
2018-11-22T03:46:01.170Z,36.10
2018-11-22T03:48:28.487Z,39.85
2018-11-22T03:50:55.822Z,38.00
2018-11-22T03:53:23.161Z,40.25
2018-11-22T03:55:50.439Z,38.90
2018-11-22T03:58:17.794Z,38.05
2018-11-22T04:00:45.133Z,40.25
2018-11-22T04:03:12.591Z,39.88
2018-11-22T04:05:39.984Z,39.38
2018-11-22T04:08:07.321Z,39.70
2018-11-22T04:10:34.596Z,42.40
2018-11-22T04:13:01.924Z,39.08
2018-11-22T04:15:29.257Z,38.73
2018-11-22T04:18:25.499Z,42.75
2018-11-22T04:20:52.938Z,39.65
2018-11-22T04:23:20.252Z,39.20
2018-11-22T04:25:47.583Z,39.48
2018-11-22T04:28:14.985Z,39.88
2018-11-22T04:30:42.266Z,42.17
2018-11-22T04:33:09.578Z,40.55
2018-11-22T04:35:36.867Z,38.92
2018-11-22T04:38:04.222Z,39.88
2018-11-22T04:40:32.191Z,36.42
2018-11-22T04:42:59.644Z,41.28
2018-11-22T04:45:26.970Z,40.85
2018-11-22T04:47:55.690Z,40.03
2018-11-22T04:50:24.433Z,39.27
2018-11-22T04:52:51.731Z,42.75
2018-11-22T04:55:19.112Z,40.85
2018-11-22T04:57:46.464Z,41.00
2018-11-22T05:00:15.409Z,43.00
2018-11-22T05:02:42.947Z,41.13
2018-11-22T05:05:11.568Z,40.08
2018-11-22T05:07:38.886Z,40.17
2018-11-22T05:10:07.246Z,39.05
2018-11-22T05:12:34.607Z,41.85
2018-11-22T05:15:01.949Z,42.50
2018-11-22T05:17:29.252Z,40.60
2018-11-22T05:19:56.581Z,43.28
2018-11-22T05:22:23.902Z,43.20
2018-11-22T05:24:51.487Z,72.87
2018-11-22T05:27:18.808Z,42.73
2018-11-22T05:29:46.181Z,46.95
2018-11-22T05:32:13.556Z,43.38
2018-11-22T05:34:40.904Z,41.25
2018-11-22T05:37:08.202Z,41.13
2018-11-22T05:39:35.600Z,44.88
2018-11-22T05:42:02.929Z,43.17
2018-11-22T05:44:30.450Z,45.15
2018-11-22T05:46:58.333Z,45.05
2018-11-22T05:49:25.114Z,44.77
2018-11-22T05:51:52.398Z,42.35
2018-11-22T05:54:19.734Z,44.53
2018-11-22T05:56:47.017Z,46.08
2018-11-22T05:59:14.382Z,44.30
2018-11-22T06:01:41.683Z,44.10
2018-11-22T06:04:08.980Z,43.50
2018-11-22T06:06:36.331Z,41.15
2018-11-22T06:09:03.911Z,43.95
2018-11-22T06:11:31.229Z,45.48
2018-11-22T06:13:58.572Z,46.77
2018-11-22T06:16:25.925Z,41.77
2018-11-22T06:18:53.287Z,47.55
2018-11-22T06:21:20.568Z,44.83
2018-11-22T06:23:47.883Z,42.33
2018-11-22T06:26:15.261Z,43.45
2018-11-22T06:28:42.571Z,41.73
2018-11-22T06:31:09.960Z,47.35
2018-11-22T06:33:37.202Z,44.25
2018-11-22T06:36:04.574Z,43.17
2018-11-22T06:38:32.285Z,45.10
2018-11-22T06:40:59.591Z,43.65
2018-11-22T06:43:26.927Z,45.08
2018-11-22T06:45:54.268Z,44.05
2018-11-22T06:48:21.559Z,44.90
2018-11-22T06:50:48.863Z,44.15
2018-11-22T06:53:16.192Z,45.63
2018-11-22T06:55:43.501Z,43.75
2018-11-22T06:58:10.840Z,43.05
2018-11-22T07:00:38.135Z,42.23
2018-11-22T07:03:07.102Z,42.88
2018-11-22T07:05:34.473Z,43.20
2018-11-22T07:08:01.732Z,48.00
2018-11-22T07:10:29.021Z,42.83
2018-11-22T07:12:57.069Z,40.52
2018-11-22T07:15:24.394Z,44.10
2018-11-22T07:17:52.009Z,40.67
2018-11-22T07:20:20.793Z,46.08
2018-11-22T07:22:48.848Z,43.78
2018-11-22T07:25:17.493Z,44.25
2018-11-22T07:27:44.962Z,45.05
2018-11-22T07:30:13.819Z,42.67
2018-11-22T07:32:41.335Z,43.20
2018-11-22T07:35:09.247Z,44.67
2018-11-22T07:37:36.716Z,43.68
2018-11-22T07:40:04.364Z,43.02
2018-11-22T07:42:31.644Z,43.17
2018-11-22T07:44:58.960Z,44.65
2018-11-22T07:47:26.257Z,41.98
2018-11-22T07:49:53.591Z,42.03
2018-11-22T07:52:20.890Z,43.15
2018-11-22T07:54:48.229Z,40.65
2018-11-22T07:57:15.527Z,43.17
2018-11-22T07:59:42.825Z,39.27
2018-11-22T08:02:10.293Z,40.83
2018-11-22T08:04:37.608Z,43.30
2018-11-22T08:07:04.913Z,41.48
2018-11-22T08:09:32.197Z,42.88
2018-11-22T08:11:59.505Z,42.33
2018-11-22T08:14:26.828Z,42.58
2018-11-22T08:16:54.114Z,45.78
2018-11-22T08:19:21.417Z,41.60
2018-11-22T08:21:48.720Z,44.73
2018-11-22T08:24:16.055Z,42.53
2018-11-22T08:26:43.302Z,38.30
2018-11-22T08:29:10.892Z,46.33
2018-11-22T08:31:38.259Z,43.85
2018-11-22T08:34:05.560Z,43.60
2018-11-22T08:36:32.832Z,44.50
2018-11-22T08:39:00.127Z,42.80
2018-11-22T08:41:27.440Z,41.20
2018-11-22T08:43:55.093Z,43.40
2018-11-22T08:46:22.431Z,40.83
2018-11-22T08:48:49.745Z,41.30
2018-11-22T08:51:17.046Z,39.45
2018-11-22T08:53:44.370Z,44.48
2018-11-22T08:56:11.645Z,42.15
2018-11-22T08:58:38.954Z,44.53
2018-11-22T09:01:06.786Z,44.15
2018-11-22T09:03:34.213Z,48.38
2018-11-22T09:06:01.549Z,48.05
2018-11-22T09:08:28.828Z,45.67
2018-11-22T09:10:56.275Z,43.60
2018-11-22T09:13:23.881Z,50.35
2018-11-22T09:15:51.177Z,44.67
2018-11-22T09:18:19.006Z,43.80
2018-11-22T09:20:46.816Z,46.68
2018-11-22T09:23:14.217Z,46.53
2018-11-22T09:25:41.846Z,46.50
2018-11-22T09:28:09.131Z,48.40
2018-11-22T09:30:37.350Z,50.23
2018-11-22T09:33:04.909Z,48.60
2018-11-22T09:35:33.637Z,50.78
2018-11-22T09:38:01.260Z,47.55
2018-11-22T09:40:33.016Z,50.17
2018-11-22T09:43:01.199Z,46.20
2018-11-22T09:45:33.235Z,48.63
2018-11-22T09:48:00.797Z,46.42
2018-11-22T09:50:28.766Z,46.45
2018-11-22T09:52:57.615Z,50.30
2018-11-22T09:55:24.922Z,52.62
2018-11-22T09:57:52.529Z,51.90
2018-11-22T10:00:23.503Z,49.98
2018-11-22T10:02:50.854Z,52.15
2018-11-22T10:05:22.736Z,56.40
2018-11-22T10:07:50.058Z,54.75
2018-11-22T10:10:18.752Z,55.60
2018-11-22T10:12:46.473Z,54.30
2018-11-22T10:15:15.633Z,54.67
2018-11-22T10:17:43.201Z,53.42
2018-11-22T10:20:12.390Z,50.05
2018-11-22T10:22:41.140Z,58.83
2018-11-22T10:25:08.632Z,56.25
2018-11-22T10:27:36.491Z,59.33
2018-11-22T10:30:10.864Z,58.20
2018-11-22T10:32:39.063Z,59.18
2018-11-22T10:35:07.009Z,61.60
2018-11-22T10:37:34.622Z,62.40
2018-11-22T10:40:02.194Z,61.20
2018-11-22T10:42:29.828Z,61.80
2018-11-22T10:44:57.352Z,52.95
2018-11-22T10:47:24.742Z,54.18
2018-11-22T10:49:52.139Z,51.37
2018-11-22T10:52:19.737Z,53.98
2018-11-22T10:54:47.067Z,58.60
2018-11-22T10:57:14.814Z,48.75
2018-11-22T10:59:42.137Z,60.25
2018-11-22T11:02:27.109Z,56.37
2018-11-22T11:05:17.091Z,53.60
2018-11-22T11:08:01.653Z,51.77
2018-11-22T11:10:29.305Z,48.65
2018-11-22T11:12:57.529Z,51.37
2018-11-22T11:15:25.282Z,45.23
2018-11-22T11:17:52.815Z,43.63
2018-11-22T11:20:20.179Z,41.25
2018-11-22T11:22:48.240Z,42.90
2018-11-22T11:25:16.017Z,45.10
2018-11-22T11:27:43.874Z,45.98
2018-11-22T11:30:11.842Z,45.38
2018-11-22T11:32:39.424Z,43.13
2018-11-22T11:35:07.855Z,47.55
2018-11-22T11:37:35.542Z,46.37
2018-11-22T11:40:03.198Z,45.98
2018-11-22T11:42:31.229Z,45.70
2018-11-22T11:45:03.125Z,42.43
2018-11-22T11:47:30.603Z,50.20
2018-11-22T11:49:58.831Z,56.77
2018-11-22T11:52:26.181Z,56.08
2018-11-22T11:54:53.669Z,57.27
2018-11-22T11:57:21.737Z,58.92
2018-11-22T11:59:48.730Z,54.27
2018-11-22T12:02:16.393Z,56.00
2018-11-22T12:04:43.855Z,59.33
2018-11-22T12:07:11.917Z,57.78
2018-11-22T12:09:39.750Z,60.38
2018-11-22T12:12:07.332Z,61.68
2018-11-22T12:14:35.118Z,61.00
2018-11-22T12:17:02.678Z,55.67
2018-11-22T12:19:30.115Z,67.90
2018-11-22T12:22:02.354Z,60.15
2018-11-22T12:24:29.661Z,58.35
2018-11-22T12:26:58.266Z,56.37
2018-11-22T12:29:26.009Z,63.13
2018-11-22T12:31:53.675Z,54.33
2018-11-22T12:34:39.041Z,53.80
2018-11-22T12:37:31.341Z,49.23
2018-11-22T12:39:58.774Z,53.87
2018-11-22T12:42:26.504Z,52.85
2018-11-22T12:45:02.362Z,57.00
2018-11-22T12:47:30.339Z,54.30
2018-11-22T12:49:57.976Z,60.45
2018-11-22T12:52:25.535Z,59.65
2018-11-22T12:54:57.696Z,53.92
2018-11-22T12:57:25.887Z,46.95
2018-11-22T12:59:54.097Z,46.00
2018-11-22T13:02:22.477Z,44.80
2018-11-22T13:04:50.226Z,47.00
2018-11-22T13:07:18.197Z,49.63
2018-11-22T13:09:46.105Z,48.08
2018-11-22T13:12:14.807Z,45.05
2018-11-22T13:14:42.521Z,48.20
2018-11-22T13:17:10.722Z,46.42
2018-11-22T13:19:38.618Z,42.78
2018-11-22T13:22:07.017Z,48.60
2018-11-22T13:24:34.374Z,50.38
2018-11-22T13:27:02.201Z,42.67
2018-11-22T13:29:29.765Z,45.38
2018-11-22T13:31:57.631Z,44.25
2018-11-22T13:34:25.298Z,47.33
2018-11-22T13:36:52.613Z,47.13
2018-11-22T13:39:19.982Z,46.30
2018-11-22T13:41:47.559Z,49.13
2018-11-22T13:44:14.887Z,57.27
2018-11-22T13:46:42.279Z,49.73
2018-11-22T13:49:10.124Z,45.88
2018-11-22T13:51:37.476Z,47.30
2018-11-22T13:54:05.059Z,51.20
2018-11-22T13:56:32.458Z,49.63
2018-11-22T13:58:59.996Z,50.52
2018-11-22T14:01:27.524Z,48.30
2018-11-22T14:03:55.215Z,46.53
2018-11-22T14:06:22.829Z,51.42
2018-11-22T14:08:50.148Z,49.25
2018-11-22T14:11:17.569Z,49.75
2018-11-22T14:13:44.935Z,53.05
2018-11-22T14:16:15.314Z,50.90
2018-11-22T14:18:42.563Z,50.95
2018-11-22T14:21:11.857Z,53.48
2018-11-22T14:23:39.785Z,47.55
2018-11-22T14:26:07.151Z,52.15
2018-11-22T14:28:34.482Z,49.45
2018-11-22T14:31:02.135Z,50.88
2018-11-22T14:33:29.956Z,50.60
2018-11-22T14:35:58.424Z,49.23
2018-11-22T14:38:27.102Z,50.95
2018-11-22T14:40:55.495Z,49.70
2018-11-22T14:43:23.421Z,54.42
2018-11-22T14:45:51.231Z,52.45
2018-11-22T14:48:18.663Z,54.63
2018-11-22T14:50:56.889Z,52.25
2018-11-22T14:53:24.432Z,51.48
2018-11-22T14:55:52.137Z,53.63
2018-11-22T14:58:21.820Z,51.08
2018-11-22T15:00:49.495Z,54.15
2018-11-22T15:03:17.588Z,54.42
2018-11-22T15:05:45.615Z,55.95
2018-11-22T15:08:13.651Z,59.18
2018-11-22T15:10:41.461Z,57.78
2018-11-22T15:13:08.978Z,62.27
2018-11-22T15:15:36.301Z,57.20
2018-11-22T15:18:03.619Z,57.00
2018-11-22T15:20:30.972Z,52.05
2018-11-22T15:22:58.781Z,59.33
2018-11-22T15:25:27.778Z,57.55
2018-11-22T15:27:55.438Z,54.15
2018-11-22T15:30:27.392Z,53.05
2018-11-22T15:32:55.081Z,55.55
2018-11-22T15:35:24.245Z,54.70
2018-11-22T15:37:52.137Z,56.83
2018-11-22T15:40:23.647Z,55.12
2018-11-22T15:42:52.786Z,56.88
2018-11-22T15:45:21.533Z,54.42
2018-11-22T15:47:48.901Z,58.85
2018-11-22T15:50:17.663Z,53.33
2018-11-22T15:52:45.002Z,54.77
2018-11-22T15:55:20.419Z,59.30
2018-11-22T15:57:42.201Z,53.23
2018-11-22T16:00:13.927Z,54.70
2018-11-22T16:02:41.691Z,54.70
2018-11-22T16:05:09.746Z,51.75
2018-11-22T16:07:37.094Z,53.00
2018-11-22T16:10:05.661Z,52.75
2018-11-22T16:12:33.064Z,47.00
2018-11-22T16:15:00.750Z,53.60
2018-11-22T16:17:28.098Z,53.78
2018-11-22T16:19:55.456Z,54.35
2018-11-22T16:22:22.984Z,54.75
2018-11-22T16:24:50.290Z,51.23
2018-11-22T16:27:17.646Z,52.00
2018-11-22T16:29:45.472Z,54.60
2018-11-22T16:32:12.775Z,48.08
2018-11-22T16:34:40.772Z,57.33
2018-11-22T16:37:08.251Z,53.13
2018-11-22T16:39:35.600Z,55.92
2018-11-22T16:42:03.182Z,59.03
2018-11-22T16:44:30.518Z,55.78
2018-11-22T16:46:58.143Z,54.23
2018-11-22T16:49:25.867Z,58.48
2018-11-22T16:51:53.461Z,51.83
2018-11-22T16:54:20.794Z,55.75
2018-11-22T16:56:48.353Z,49.80
2018-11-22T16:59:15.648Z,52.08
2018-11-22T17:01:43.521Z,50.90
2018-11-22T17:04:10.815Z,50.67
2018-11-22T17:06:38.503Z,49.93
2018-11-22T17:09:07.500Z,54.77
2018-11-22T17:11:35.050Z,52.08
2018-11-22T17:14:02.408Z,53.17
2018-11-22T17:16:29.783Z,53.78
2018-11-22T17:18:57.254Z,51.35
2018-11-22T17:21:24.802Z,50.35
2018-11-22T17:23:52.424Z,50.65
2018-11-22T17:26:19.659Z,50.88
2018-11-22T17:28:47.516Z,49.93
2018-11-22T17:31:15.034Z,49.45
2018-11-22T17:33:42.423Z,51.33
2018-11-22T17:36:09.741Z,51.25
2018-11-22T17:38:37.094Z,50.48
2018-11-22T17:41:04.414Z,49.55
2018-11-22T17:43:31.749Z,53.05
2018-11-22T17:45:59.199Z,50.38
2018-11-22T17:48:26.479Z,49.45
2018-11-22T17:50:53.837Z,50.58
2018-11-22T17:53:21.252Z,51.37
2018-11-22T17:55:48.864Z,50.67
2018-11-22T17:58:16.720Z,51.13
2018-11-22T18:00:54.281Z,52.75
2018-11-22T18:03:21.977Z,55.00
2018-11-22T18:05:49.900Z,49.65
2018-11-22T18:08:17.316Z,48.90
2018-11-22T18:10:44.798Z,51.63
2018-11-22T18:13:12.231Z,52.20
2018-11-22T18:15:59.556Z,47.90
2018-11-22T18:18:28.530Z,51.15
2018-11-22T18:20:56.177Z,48.28
2018-11-22T18:23:23.873Z,49.40
2018-11-22T18:25:51.249Z,55.45
2018-11-22T18:28:18.640Z,45.08
2018-11-22T18:30:46.225Z,50.85
2018-11-22T18:33:14.781Z,53.65
2018-11-22T18:35:42.478Z,47.05
2018-11-22T18:38:10.006Z,50.70
2018-11-22T18:40:38.990Z,52.15
2018-11-22T18:43:06.486Z,44.23
2018-11-22T18:45:38.424Z,52.05
2018-11-22T18:48:11.132Z,52.08
2018-11-22T18:50:39.173Z,51.83
2018-11-22T18:53:09.982Z,48.17
2018-11-22T18:55:37.761Z,48.95
2018-11-22T18:58:05.888Z,51.50
2018-11-22T19:00:35.057Z,49.48
2018-11-22T19:03:03.245Z,46.33
2018-11-22T19:05:30.774Z,48.87
2018-11-22T19:07:58.797Z,50.08
2018-11-22T19:10:27.678Z,48.90
2018-11-22T19:12:59.628Z,48.10
2018-11-22T19:15:28.479Z,49.70
2018-11-22T19:17:56.013Z,44.08
2018-11-22T19:20:27.481Z,47.33
2018-11-22T19:22:55.859Z,47.45
2018-11-22T19:25:24.643Z,45.25
2018-11-22T19:27:53.058Z,49.38
2018-11-22T19:30:39.952Z,47.17
2018-11-22T19:33:08.732Z,49.83
2018-11-22T19:35:38.003Z,46.65
2018-11-22T19:38:05.582Z,46.37
2018-11-22T19:40:37.451Z,48.70
2018-11-22T19:43:06.554Z,50.40
2018-11-22T19:45:35.925Z,46.80
2018-11-22T19:48:04.125Z,46.58
2018-11-22T19:50:32.328Z,43.78
2018-11-22T19:53:00.793Z,51.10
2018-11-22T19:55:29.556Z,46.68
2018-11-22T19:57:58.645Z,49.53
2018-11-22T20:00:26.653Z,48.78
2018-11-22T20:02:55.175Z,43.78
2018-11-22T20:05:23.596Z,46.13
2018-11-22T20:07:55.869Z,46.80
2018-11-22T20:10:28.585Z,47.08
2018-11-22T20:12:56.789Z,46.42
2018-11-22T20:15:25.099Z,46.02
2018-11-22T20:17:54.578Z,46.30
2018-11-22T20:20:23.844Z,46.92
2018-11-22T20:22:52.274Z,45.70
2018-11-22T20:25:22.273Z,43.48
2018-11-22T20:27:52.436Z,45.83
2018-11-22T20:30:39.362Z,46.80
2018-11-22T20:33:06.865Z,43.92
2018-11-22T20:35:36.320Z,47.48
2018-11-22T20:38:04.661Z,49.30
2018-11-22T20:40:32.625Z,49.25
2018-11-22T20:43:01.715Z,46.53
2018-11-22T20:45:31.209Z,50.05
2018-11-22T20:48:03.516Z,46.88
2018-11-22T20:50:32.178Z,49.03
2018-11-22T20:53:00.163Z,46.95
2018-11-22T20:55:32.971Z,42.05
2018-11-22T20:58:02.228Z,48.02
2018-11-22T21:00:30.841Z,51.65
2018-11-22T21:02:58.276Z,48.80
2018-11-22T21:05:26.819Z,46.50
2018-11-22T21:07:55.518Z,46.60
2018-11-22T21:10:24.637Z,46.75
2018-11-22T21:12:52.009Z,41.88
2018-11-22T21:15:30.088Z,47.53
2018-11-22T21:18:01.060Z,49.60
2018-11-22T21:20:36.225Z,47.75
2018-11-22T21:23:03.609Z,47.75
2018-11-22T21:25:31.091Z,47.00
2018-11-22T21:27:58.475Z,47.08
2018-11-22T21:30:27.231Z,47.98
2018-11-22T21:32:54.822Z,47.98
2018-11-22T21:35:22.293Z,45.75
2018-11-22T21:37:50.367Z,48.73
2018-11-22T21:40:18.395Z,46.50
2018-11-22T21:42:46.225Z,46.95
2018-11-22T21:45:20.664Z,49.38
2018-11-22T21:47:47.984Z,45.52
2018-11-22T21:50:17.010Z,47.05
2018-11-22T21:52:44.656Z,40.33
2018-11-22T21:55:15.942Z,48.08
2018-11-22T21:57:44.699Z,49.05
2018-11-22T22:00:13.260Z,44.53
2018-11-22T22:02:40.932Z,42.98
2018-11-22T22:05:08.279Z,44.48
2018-11-22T22:07:35.986Z,43.38
2018-11-22T22:10:03.855Z,48.58
2018-11-22T22:12:31.643Z,45.67
2018-11-22T22:14:58.934Z,44.58
2018-11-22T22:17:26.222Z,38.67
2018-11-22T22:19:53.613Z,43.70
2018-11-22T22:22:20.950Z,46.30
2018-11-22T22:24:48.469Z,43.38
2018-11-22T22:27:16.482Z,44.30
2018-11-22T22:29:43.805Z,45.30
2018-11-22T22:32:11.201Z,45.80
2018-11-22T22:34:39.316Z,44.90
2018-11-22T22:37:06.992Z,42.73
2018-11-22T22:39:34.423Z,42.20
2018-11-22T22:42:01.965Z,43.80
2018-11-22T22:44:29.867Z,45.75
2018-11-22T22:46:57.438Z,41.73
2018-11-22T22:49:24.697Z,43.23
2018-11-22T22:51:52.296Z,45.78
2018-11-22T22:54:19.787Z,44.65
2018-11-22T22:56:47.218Z,44.80
2018-11-22T22:59:14.764Z,41.02
2018-11-22T23:01:42.317Z,44.50
2018-11-22T23:04:09.691Z,42.17
2018-11-22T23:06:36.980Z,43.17
2018-11-22T23:09:07.024Z,43.70
2018-11-22T23:11:34.338Z,42.75
2018-11-22T23:14:01.914Z,42.70
2018-11-22T23:16:29.559Z,43.28
2018-11-22T23:18:56.834Z,44.80
2018-11-22T23:21:24.898Z,45.17
2018-11-22T23:23:52.863Z,44.10
2018-11-22T23:26:20.649Z,47.75
2018-11-22T23:28:48.642Z,44.60
2018-11-22T23:31:15.948Z,42.17
2018-11-22T23:33:43.505Z,43.52
2018-11-22T23:36:11.316Z,44.80
2018-11-22T23:38:39.100Z,45.35
2018-11-22T23:41:06.408Z,42.60
2018-11-22T23:43:33.745Z,42.95
2018-11-22T23:46:01.070Z,45.48
2018-11-22T23:48:28.659Z,38.02
2018-11-22T23:50:55.980Z,42.48
2018-11-22T23:53:26.649Z,48.00
2018-11-22T23:55:54.397Z,43.52
2018-11-22T23:58:21.639Z,45.43
